createdAt,value
2019-04-06T00:01:07.688Z,99129.00
2019-04-06T00:03:35.345Z,99125.59
2019-04-06T00:06:03.307Z,99129.45
2019-04-06T00:08:31.197Z,99131.86
2019-04-06T00:10:58.840Z,99129.98
2019-04-06T00:13:26.583Z,99125.09
2019-04-06T00:15:54.241Z,99130.84
2019-04-06T00:18:21.888Z,99128.72
2019-04-06T00:20:49.543Z,99134.94
2019-04-06T00:23:17.187Z,99144.35
2019-04-06T00:25:45.105Z,99143.17
2019-04-06T00:28:12.976Z,99131.38
2019-04-06T00:30:50.185Z,99135.52
2019-04-06T00:33:19.225Z,99130.97
2019-04-06T00:35:46.875Z,99139.75
2019-04-06T00:38:14.523Z,99136.26
2019-04-06T00:40:42.187Z,99134.63
2019-04-06T00:43:09.876Z,99133.01
2019-04-06T00:45:37.511Z,99128.30
2019-04-06T00:48:05.181Z,99126.81
2019-04-06T00:50:32.987Z,99135.05
2019-04-06T00:53:00.645Z,99134.34
2019-04-06T00:55:28.304Z,99135.55
2019-04-06T00:57:55.955Z,99137.88
2019-04-06T01:00:23.706Z,99135.38
2019-04-06T01:02:51.368Z,99145.16
2019-04-06T01:05:19.486Z,99145.37
2019-04-06T01:07:47.185Z,99139.55
2019-04-06T01:10:14.844Z,99155.75
2019-04-06T01:12:42.499Z,99148.28
2019-04-06T01:15:10.234Z,99148.52
2019-04-06T01:17:37.875Z,99147.86
2019-04-06T01:20:05.540Z,99153.34
2019-04-06T01:22:33.194Z,99155.66
2019-04-06T01:25:00.854Z,99160.16
2019-04-06T01:27:28.588Z,99155.23
2019-04-06T01:29:56.464Z,99154.73
2019-04-06T01:32:24.118Z,99159.62
2019-04-06T01:34:51.808Z,99151.69
2019-04-06T01:37:19.514Z,99158.08
2019-04-06T01:39:47.665Z,99157.13
2019-04-06T01:42:15.497Z,99154.37
2019-04-06T01:44:43.147Z,99156.93
2019-04-06T01:47:10.831Z,99157.58
2019-04-06T01:49:38.623Z,99161.34
2019-04-06T01:52:06.381Z,99154.84
2019-04-06T01:54:34.138Z,99149.08
2019-04-06T01:57:01.904Z,99153.13
2019-04-06T01:59:29.609Z,99154.72
2019-04-06T02:02:00.848Z,99147.06
2019-04-06T02:04:28.482Z,99148.64
2019-04-06T02:06:56.141Z,99147.95
2019-04-06T02:09:23.775Z,99151.61
2019-04-06T02:11:51.439Z,99148.84
2019-04-06T02:14:19.097Z,99141.39
2019-04-06T02:16:46.740Z,99137.31
2019-04-06T02:19:15.592Z,99139.25
2019-04-06T02:21:43.308Z,99150.23
2019-04-06T02:24:11.875Z,99146.22
2019-04-06T02:26:39.583Z,99149.97
2019-04-06T02:29:07.232Z,99152.47
2019-04-06T02:31:46.656Z,99148.55
2019-04-06T02:34:24.937Z,99155.08
2019-04-06T02:37:04.286Z,99150.89
2019-04-06T02:39:40.637Z,99150.17
2019-04-06T02:42:13.732Z,99158.32
2019-04-06T02:44:41.377Z,99153.53
2019-04-06T02:47:09.499Z,99156.20
2019-04-06T02:49:37.232Z,99153.91
2019-04-06T02:52:04.875Z,99159.05
2019-04-06T02:54:32.533Z,99160.95
2019-04-06T02:57:00.186Z,99169.52
2019-04-06T02:59:27.860Z,99171.66
2019-04-06T03:01:55.772Z,99164.35
2019-04-06T03:04:23.427Z,99172.59
2019-04-06T03:06:51.082Z,99165.80
2019-04-06T03:09:18.839Z,99156.41
2019-04-06T03:11:46.546Z,99159.62
2019-04-06T03:14:14.327Z,99160.80
2019-04-06T03:16:42.123Z,99163.14
2019-04-06T03:19:09.912Z,99159.70
2019-04-06T03:21:37.578Z,99161.39
2019-04-06T03:24:05.285Z,99164.59
2019-04-06T03:26:33.138Z,99165.05
2019-04-06T03:29:00.869Z,99160.94
2019-04-06T03:31:28.739Z,99165.70
2019-04-06T03:33:56.589Z,99162.22
2019-04-06T03:36:24.361Z,99159.00
2019-04-06T03:38:52.009Z,99170.23
2019-04-06T03:41:19.698Z,99164.11
2019-04-06T03:43:47.523Z,99161.83
2019-04-06T03:46:15.233Z,99163.91
2019-04-06T03:48:42.960Z,99171.78
2019-04-06T03:51:10.805Z,99173.94
2019-04-06T03:53:38.555Z,99169.98
2019-04-06T03:56:06.204Z,99169.72
2019-04-06T03:58:33.934Z,99168.97
2019-04-06T04:01:01.781Z,99167.81
2019-04-06T04:03:29.557Z,99170.16
2019-04-06T04:05:57.301Z,99172.71
2019-04-06T04:08:26.451Z,99169.80
2019-04-06T04:10:54.148Z,99180.13
2019-04-06T04:13:21.819Z,99175.20
2019-04-06T04:15:49.472Z,99175.62
2019-04-06T04:18:17.127Z,99167.56
2019-04-06T04:20:45.185Z,99175.92
2019-04-06T04:23:13.055Z,99164.59
2019-04-06T04:25:40.741Z,99169.56
2019-04-06T04:28:08.433Z,99166.77
2019-04-06T04:30:36.246Z,99166.25
2019-04-06T04:33:04.044Z,99168.95
2019-04-06T04:35:31.696Z,99173.40
2019-04-06T04:37:59.344Z,99176.84
2019-04-06T04:40:27.126Z,99176.08
2019-04-06T04:42:54.780Z,99183.27
2019-04-06T04:45:23.076Z,99181.81
2019-04-06T04:47:50.725Z,99179.47
2019-04-06T04:50:18.447Z,99181.39
2019-04-06T04:52:46.254Z,99178.98
2019-04-06T04:55:14.035Z,99177.78
2019-04-06T04:57:44.766Z,99182.75
2019-04-06T05:00:11.132Z,99191.86
2019-04-06T05:02:38.855Z,99189.18
2019-04-06T05:05:06.512Z,99192.80
2019-04-06T05:07:34.155Z,99196.20
2019-04-06T05:10:01.818Z,99193.44
2019-04-06T05:12:29.476Z,99192.21
2019-04-06T05:14:57.134Z,99194.14
2019-04-06T05:17:25.323Z,99199.76
2019-04-06T05:19:53.068Z,99196.88
2019-04-06T05:22:20.723Z,99193.77
2019-04-06T05:24:48.538Z,99197.44
2019-04-06T05:27:16.414Z,99203.23
2019-04-06T05:29:44.059Z,99210.60
2019-04-06T05:32:11.851Z,99206.93
2019-04-06T05:34:39.489Z,99205.95
2019-04-06T05:37:07.266Z,99207.14
2019-04-06T05:39:34.959Z,99214.20
2019-04-06T05:42:02.775Z,99217.28
2019-04-06T05:44:30.431Z,99214.34
2019-04-06T05:46:58.094Z,99218.17
2019-04-06T05:49:25.748Z,99221.22
2019-04-06T05:51:53.475Z,99224.71
2019-04-06T05:54:21.123Z,99225.27
2019-04-06T05:56:48.765Z,99220.61
2019-04-06T05:59:16.431Z,99219.16
2019-04-06T06:01:44.140Z,99223.81
2019-04-06T06:04:11.800Z,99229.75
2019-04-06T06:06:39.434Z,99233.70
2019-04-06T06:09:07.585Z,99236.66
2019-04-06T06:11:35.260Z,99234.30
2019-04-06T06:14:02.940Z,99233.23
2019-04-06T06:16:30.659Z,99238.02
2019-04-06T06:18:58.312Z,99240.28
2019-04-06T06:21:25.964Z,99244.37
2019-04-06T06:23:53.609Z,99247.02
2019-04-06T06:26:21.425Z,99238.23
2019-04-06T06:28:49.279Z,99242.20
2019-04-06T06:31:17.320Z,99243.03
2019-04-06T06:33:45.052Z,99241.05
2019-04-06T06:36:12.737Z,99245.61
2019-04-06T06:38:40.404Z,99248.29
2019-04-06T06:41:08.050Z,99245.06
2019-04-06T06:43:35.792Z,99245.75
2019-04-06T06:46:03.504Z,99242.09
2019-04-06T06:48:31.332Z,99237.95
2019-04-06T06:50:59.004Z,99241.44
2019-04-06T06:53:26.723Z,99249.52
2019-04-06T06:55:54.723Z,99243.45
2019-04-06T06:58:25.707Z,99234.88
2019-04-06T07:00:51.819Z,99238.89
2019-04-06T07:03:19.504Z,99235.89
2019-04-06T07:05:47.179Z,99235.96
2019-04-06T07:08:15.082Z,99237.28
2019-04-06T07:10:42.823Z,99233.84
2019-04-06T07:13:10.687Z,99230.40
2019-04-06T07:15:38.424Z,99227.38
2019-04-06T07:18:06.092Z,99223.08
2019-04-06T07:20:33.759Z,99223.50
2019-04-06T07:23:01.448Z,99226.96
2019-04-06T07:25:29.166Z,99224.39
2019-04-06T07:27:56.878Z,99223.06
2019-04-06T07:30:24.575Z,99229.57
2019-04-06T07:32:52.227Z,99222.63
2019-04-06T07:35:19.931Z,99219.17
2019-04-06T07:37:47.595Z,99226.54
2019-04-06T07:40:15.433Z,99218.30
2019-04-06T07:42:43.110Z,99218.25
2019-04-06T07:45:10.780Z,99220.88
2019-04-06T07:47:38.535Z,99214.75
2019-04-06T07:50:06.203Z,99217.20
2019-04-06T07:52:33.868Z,99220.70
2019-04-06T07:55:01.531Z,99220.25
2019-04-06T07:57:29.203Z,99215.55
2019-04-06T07:59:57.032Z,99220.22
2019-04-06T08:02:24.724Z,99209.73
2019-04-06T08:04:52.486Z,99206.11
2019-04-06T08:07:20.410Z,99210.45
2019-04-06T08:09:48.183Z,99208.22
2019-04-06T08:12:15.871Z,99199.91
2019-04-06T08:14:43.594Z,99199.75
2019-04-06T08:17:11.488Z,99204.88
2019-04-06T08:19:39.190Z,99207.33
2019-04-06T08:22:06.981Z,99200.69
2019-04-06T08:24:34.914Z,99195.57
2019-04-06T08:27:02.627Z,99192.53
2019-04-06T08:29:30.400Z,99198.90
2019-04-06T08:31:58.092Z,99181.98
2019-04-06T08:34:25.821Z,99187.06
2019-04-06T08:36:53.560Z,99171.80
2019-04-06T08:39:21.318Z,99175.81
2019-04-06T08:41:48.983Z,99170.25
2019-04-06T08:44:16.776Z,99166.77
2019-04-06T08:46:44.495Z,99163.91
2019-04-06T08:49:12.398Z,99170.51
2019-04-06T08:51:40.218Z,99168.92
2019-04-06T08:54:07.891Z,99160.72
2019-04-06T08:56:35.555Z,99165.69
2019-04-06T08:59:11.264Z,99166.95
2019-04-06T09:01:32.615Z,99162.23
2019-04-06T09:04:00.269Z,99160.33
2019-04-06T09:06:27.927Z,99157.18
2019-04-06T09:08:55.590Z,99161.67
2019-04-06T09:11:23.521Z,99151.42
2019-04-06T09:13:51.320Z,99148.63
2019-04-06T09:16:18.995Z,99142.16
2019-04-06T09:18:48.694Z,99140.02
2019-04-06T09:21:16.180Z,99139.66
2019-04-06T09:23:44.000Z,99138.59
2019-04-06T09:26:11.924Z,99141.57
2019-04-06T09:28:39.922Z,99137.63
2019-04-06T09:31:08.107Z,99135.52
2019-04-06T09:33:35.787Z,99128.92
2019-04-06T09:36:03.451Z,99135.20
2019-04-06T09:38:31.106Z,99127.99
2019-04-06T09:40:58.911Z,99124.73
2019-04-06T09:43:26.619Z,99123.41
2019-04-06T09:46:03.514Z,99120.20
2019-04-06T09:48:37.839Z,99110.91
2019-04-06T09:51:25.410Z,99116.48
2019-04-06T09:54:05.944Z,99112.66
2019-04-06T09:56:37.034Z,99106.36
2019-04-06T09:59:15.802Z,99097.69
2019-04-06T10:02:02.501Z,99101.72
2019-04-06T10:04:43.615Z,99098.16
2019-04-06T10:07:20.348Z,99102.77
2019-04-06T10:09:53.660Z,99098.84
2019-04-06T10:12:36.890Z,99095.86
2019-04-06T10:15:25.496Z,99096.13
2019-04-06T10:17:58.443Z,99097.52
2019-04-06T10:20:35.129Z,99097.37
2019-04-06T10:23:21.900Z,99096.39
2019-04-06T10:25:54.597Z,99086.25
2019-04-06T10:28:43.203Z,99081.52
2019-04-06T10:31:29.934Z,99081.23
2019-04-06T10:34:19.723Z,99089.77
2019-04-06T10:36:52.675Z,99076.45
2019-04-06T10:39:28.045Z,99072.90
2019-04-06T10:42:01.052Z,99071.74
2019-04-06T10:44:47.395Z,99077.83
2019-04-06T10:47:23.678Z,99067.98
2019-04-06T10:50:00.160Z,99072.47
2019-04-06T10:52:36.056Z,99068.84
2019-04-06T10:55:12.008Z,99069.00
2019-04-06T10:58:00.660Z,99068.81
2019-04-06T11:00:48.342Z,99064.78
2019-04-06T11:03:21.807Z,99067.61
2019-04-06T11:05:54.777Z,99061.89
2019-04-06T11:08:27.890Z,99056.13
2019-04-06T11:11:04.536Z,99053.27
2019-04-06T11:13:42.056Z,99057.60
2019-04-06T11:16:16.783Z,99053.20
2019-04-06T11:18:57.847Z,99058.30
2019-04-06T11:21:30.819Z,99048.53
2019-04-06T11:24:11.718Z,99050.82
2019-04-06T11:26:48.699Z,99050.62
2019-04-06T11:29:21.868Z,99051.92
2019-04-06T11:32:00.294Z,99040.28
2019-04-06T11:34:33.264Z,99037.88
2019-04-06T11:37:11.417Z,99040.81
2019-04-06T11:40:03.410Z,99029.88
2019-04-06T11:42:46.131Z,99033.92
2019-04-06T11:45:24.035Z,99029.88
2019-04-06T11:48:02.086Z,99017.91
2019-04-06T11:50:43.933Z,99025.33
2019-04-06T11:53:18.296Z,99023.48
2019-04-06T11:55:54.839Z,99024.98
2019-04-06T11:58:41.543Z,99012.25
2019-04-06T12:01:15.072Z,99007.20
2019-04-06T12:03:55.135Z,99007.20
2019-04-06T12:06:28.495Z,99006.94
2019-04-06T12:09:19.341Z,99016.75
2019-04-06T12:11:59.755Z,99003.37
2019-04-06T12:14:32.328Z,99000.33
2019-04-06T12:17:09.215Z,98996.31
2019-04-06T12:19:56.170Z,98985.98
2019-04-06T12:22:30.270Z,98985.98
2019-04-06T12:25:08.449Z,98993.48
2019-04-06T12:27:49.669Z,98988.65
2019-04-06T12:30:36.607Z,98976.70
2019-04-06T12:33:06.251Z,98976.70
2019-04-06T12:35:47.731Z,98982.27
2019-04-06T12:38:25.400Z,98973.30
2019-04-06T12:40:58.557Z,98988.98
2019-04-06T12:43:39.089Z,98984.73
2019-04-06T12:46:19.906Z,98981.01
2019-04-06T12:49:01.650Z,98980.23
2019-04-06T12:51:48.371Z,98979.25
2019-04-06T12:54:27.650Z,98985.94
2019-04-06T12:57:05.562Z,98980.72
2019-04-06T12:59:53.380Z,98971.37
2019-04-06T13:02:30.119Z,98985.48
2019-04-06T13:05:02.992Z,98973.98
2019-04-06T13:07:40.180Z,98969.63
2019-04-06T13:10:14.184Z,98970.45
2019-04-06T13:13:00.900Z,98959.92
2019-04-06T13:15:35.332Z,98957.06
2019-04-06T13:18:10.067Z,98976.94
2019-04-06T13:20:48.646Z,98964.27
2019-04-06T13:23:31.797Z,98967.41
2019-04-06T13:26:14.103Z,98962.46
2019-04-06T13:28:51.512Z,98961.15
2019-04-06T13:31:26.939Z,98963.19
2019-04-06T13:34:15.681Z,98964.50
2019-04-06T13:36:50.216Z,98962.11
2019-04-06T13:39:30.176Z,98954.42
2019-04-06T13:42:09.505Z,98946.72
2019-04-06T13:44:43.015Z,98956.44
2019-04-06T13:47:30.536Z,98956.47
2019-04-06T13:50:06.643Z,98950.73
2019-04-06T13:52:43.776Z,98940.56
2019-04-06T13:55:16.731Z,98940.56
2019-04-06T13:57:52.733Z,98950.78
2019-04-06T14:00:39.425Z,98952.05
2019-04-06T14:03:32.147Z,98963.81
2019-04-06T14:06:12.839Z,98960.09
2019-04-06T14:08:47.059Z,98962.92
2019-04-06T14:11:20.043Z,98960.51
2019-04-06T14:13:54.576Z,98959.36
2019-04-06T14:16:37.778Z,98960.58
2019-04-06T14:19:22.259Z,98975.94
2019-04-06T14:21:56.056Z,98975.88
2019-04-06T14:24:32.228Z,98979.41
2019-04-06T14:27:09.847Z,98980.84
2019-04-06T14:29:42.639Z,98986.14
2019-04-06T14:32:19.100Z,98985.63
2019-04-06T14:34:52.035Z,98979.72
2019-04-06T14:37:25.016Z,98980.55
2019-04-06T14:39:57.936Z,98981.40
2019-04-06T14:42:34.510Z,98979.52
2019-04-06T14:45:09.741Z,98973.63
2019-04-06T14:47:56.431Z,98978.34
2019-04-06T14:50:29.499Z,98979.84
2019-04-06T14:53:07.444Z,98982.96
2019-04-06T14:55:41.563Z,98982.19
2019-04-06T14:58:22.567Z,98985.36
2019-04-06T15:01:09.505Z,98977.94
2019-04-06T15:03:50.071Z,98984.30
2019-04-06T15:06:27.081Z,98981.33
2019-04-06T15:09:04.595Z,98980.56
2019-04-06T15:11:46.908Z,98977.42
2019-04-06T15:14:33.657Z,98974.70
2019-04-06T15:17:10.893Z,98979.02
2019-04-06T15:19:45.727Z,98980.20
2019-04-06T15:22:23.829Z,98984.55
2019-04-06T15:25:00.277Z,98982.66
2019-04-06T15:27:36.873Z,98981.92
2019-04-06T15:30:17.886Z,98986.53
2019-04-06T15:33:04.719Z,98984.22
2019-04-06T15:35:39.078Z,98989.22
2019-04-06T15:38:12.666Z,98992.64
2019-04-06T15:40:49.143Z,98993.05
2019-04-06T15:43:36.044Z,98994.09
2019-04-06T15:46:11.296Z,98995.86
2019-04-06T15:48:44.307Z,99001.55
2019-04-06T15:51:21.774Z,98996.50
2019-04-06T15:54:01.452Z,99001.43
2019-04-06T15:56:43.579Z,99000.34
2019-04-06T15:59:20.415Z,99014.25
2019-04-06T16:02:01.549Z,99010.71
2019-04-06T16:04:29.131Z,99011.38
2019-04-06T16:07:04.667Z,99003.84
2019-04-06T16:09:44.849Z,99006.12
2019-04-06T16:12:19.981Z,99004.48
2019-04-06T16:14:55.835Z,99002.92
2019-04-06T16:17:32.743Z,99009.75
2019-04-06T16:20:10.839Z,99014.11
2019-04-06T16:22:46.687Z,99025.39
2019-04-06T16:25:20.891Z,99035.92
2019-04-06T16:28:08.038Z,99045.55
2019-04-06T16:30:42.944Z,99047.34
2019-04-06T16:33:20.135Z,99053.13
2019-04-06T16:35:53.725Z,99057.70
2019-04-06T16:38:40.975Z,99062.17
2019-04-06T16:41:22.521Z,99058.69
2019-04-06T16:43:55.935Z,99063.97
2019-04-06T16:46:31.569Z,99064.63
2019-04-06T16:49:20.323Z,99067.89
2019-04-06T16:52:00.183Z,99071.13
2019-04-06T16:54:38.582Z,99071.13
2019-04-06T16:57:30.462Z,99088.41
2019-04-06T17:00:17.038Z,99093.94
2019-04-06T17:02:44.869Z,99083.18
2019-04-06T17:05:20.879Z,99084.48
2019-04-06T17:08:10.529Z,99088.98
2019-04-06T17:10:40.356Z,99094.28
2019-04-06T17:13:16.940Z,99087.77
2019-04-06T17:16:04.007Z,99087.70
2019-04-06T17:18:48.450Z,99088.67
2019-04-06T17:21:28.459Z,99086.17
2019-04-06T17:24:09.326Z,99092.75
2019-04-06T17:26:45.550Z,99089.84
2019-04-06T17:29:26.346Z,99088.81
2019-04-06T17:32:00.820Z,99091.42
2019-04-06T17:34:53.121Z,99089.77
2019-04-06T17:37:20.898Z,99098.03
2019-04-06T17:40:08.728Z,99096.64
2019-04-06T17:42:43.551Z,99102.02
2019-04-06T17:45:31.289Z,99114.58
2019-04-06T17:48:18.404Z,99111.58
2019-04-06T17:51:01.604Z,99111.70
2019-04-06T17:53:41.077Z,99105.76
2019-04-06T17:56:22.795Z,99111.94
2019-04-06T17:59:12.062Z,99110.73
2019-04-06T18:01:48.960Z,99120.28
2019-04-06T18:04:29.395Z,99122.02
2019-04-06T18:07:21.292Z,99126.44
2019-04-06T18:10:00.113Z,99126.50
2019-04-06T18:12:34.840Z,99126.49
2019-04-06T18:15:03.460Z,99131.30
2019-04-06T18:17:31.244Z,99136.04
2019-04-06T18:19:58.906Z,99142.58
2019-04-06T18:22:26.659Z,99146.48
2019-04-06T18:24:54.328Z,99148.22
2019-04-06T18:27:21.987Z,99147.85
2019-04-06T18:29:51.102Z,99143.12
2019-04-06T18:32:30.323Z,99156.61
2019-04-06T18:34:58.146Z,99151.84
2019-04-06T18:37:44.890Z,99155.73
2019-04-06T18:40:18.847Z,99161.83
2019-04-06T18:42:46.492Z,99159.30
2019-04-06T18:45:14.388Z,99162.77
2019-04-06T18:47:42.467Z,99162.73
2019-04-06T18:50:10.351Z,99158.86
2019-04-06T18:52:38.457Z,99165.38
2019-04-06T18:55:06.463Z,99170.58
2019-04-06T18:57:34.551Z,99167.13
2019-04-06T19:00:02.500Z,99160.20
2019-04-06T19:02:30.591Z,99171.48
2019-04-06T19:04:58.662Z,99165.83
2019-04-06T19:07:26.868Z,99174.96
2019-04-06T19:09:54.680Z,99174.96
2019-04-06T19:12:22.360Z,99167.60
2019-04-06T19:14:50.027Z,99172.38
2019-04-06T19:17:17.679Z,99177.13
2019-04-06T19:19:45.570Z,99175.42
2019-04-06T19:22:13.587Z,99178.00
2019-04-06T19:24:41.800Z,99172.83
2019-04-06T19:27:10.022Z,99174.98
2019-04-06T19:29:37.744Z,99177.16
2019-04-06T19:32:05.677Z,99173.25
2019-04-06T19:34:33.451Z,99170.67
2019-04-06T19:37:01.111Z,99176.31
2019-04-06T19:39:29.130Z,99169.80
2019-04-06T19:41:57.346Z,99173.28
2019-04-06T19:44:25.176Z,99174.14
2019-04-06T19:46:52.955Z,99173.72
2019-04-06T19:49:20.775Z,99165.48
2019-04-06T19:51:48.845Z,99170.25
2019-04-06T19:54:16.671Z,99168.08
2019-04-06T19:56:44.395Z,99173.27
2019-04-06T19:59:13.578Z,99168.08
2019-04-06T20:01:41.422Z,99165.05
2019-04-06T20:04:09.142Z,99167.20
2019-04-06T20:06:37.360Z,99169.78
2019-04-06T20:09:06.057Z,99174.55
2019-04-06T20:11:34.677Z,99171.97
2019-04-06T20:14:02.474Z,99165.47
2019-04-06T20:16:30.130Z,99162.43
2019-04-06T20:18:57.771Z,99162.86
2019-04-06T20:21:25.431Z,99163.71
2019-04-06T20:23:53.195Z,99164.14
2019-04-06T20:26:20.977Z,99158.53
2019-04-06T20:28:49.534Z,99161.96
2019-04-06T20:31:17.367Z,99156.71
2019-04-06T20:33:50.990Z,99162.79
2019-04-06T20:36:14.652Z,99161.48
2019-04-06T20:38:42.398Z,99158.41
2019-04-06T20:41:10.099Z,99156.70
2019-04-06T20:43:37.763Z,99156.63
2019-04-06T20:46:05.444Z,99154.07
2019-04-06T20:48:33.665Z,99147.14
2019-04-06T20:51:01.547Z,99147.53
2019-04-06T20:53:29.886Z,99151.44
2019-04-06T20:55:57.801Z,99147.53
2019-04-06T20:58:25.927Z,99142.78
2019-04-06T21:00:53.688Z,99145.70
2019-04-06T21:03:21.341Z,99146.11
2019-04-06T21:05:49.392Z,99143.09
2019-04-06T21:08:17.223Z,99139.67
2019-04-06T21:10:45.634Z,99147.79
2019-04-06T21:13:13.487Z,99156.88
2019-04-06T21:15:41.723Z,99155.17
2019-04-06T21:18:09.497Z,99153.03
2019-04-06T21:20:37.171Z,99148.70
2019-04-06T21:23:05.121Z,99156.03
2019-04-06T21:25:32.898Z,99152.58
2019-04-06T21:28:01.083Z,99145.60
2019-04-06T21:30:28.811Z,99153.80
2019-04-06T21:32:56.822Z,99151.23
2019-04-06T21:35:24.600Z,99149.41
2019-04-06T21:37:52.843Z,99142.05
2019-04-06T21:40:20.643Z,99138.97
2019-04-06T21:42:48.538Z,99139.36
2019-04-06T21:45:16.232Z,99147.14
2019-04-06T21:47:44.231Z,99145.82
2019-04-06T21:50:11.991Z,99142.81
2019-04-06T21:52:40.364Z,99146.21
2019-04-06T21:55:08.113Z,99149.66
2019-04-06T21:57:35.805Z,99147.83
2019-04-06T22:00:04.264Z,99152.85
2019-04-06T22:02:32.424Z,99148.89
2019-04-06T22:05:00.271Z,99146.76
2019-04-06T22:07:27.929Z,99152.03
2019-04-06T22:09:55.855Z,99138.94
2019-04-06T22:12:23.921Z,99143.13
2019-04-06T22:14:51.679Z,99145.30
2019-04-06T22:17:19.531Z,99146.20
2019-04-06T22:19:48.161Z,99140.95
2019-04-06T22:22:15.974Z,99132.70
2019-04-06T22:24:43.631Z,99141.78
2019-04-06T22:27:11.290Z,99136.17
2019-04-06T22:29:38.951Z,99135.78
2019-04-06T22:32:06.632Z,99128.28
2019-04-06T22:34:39.711Z,99122.66
2019-04-06T22:37:03.681Z,99126.98
2019-04-06T22:39:31.591Z,99125.27
2019-04-06T22:41:59.358Z,99131.16
2019-04-06T22:44:27.096Z,99126.98
2019-04-06T22:46:54.759Z,99123.00
2019-04-06T22:49:22.715Z,99130.12
2019-04-06T22:51:50.626Z,99125.28
2019-04-06T22:54:18.524Z,99125.77
2019-04-06T22:56:46.802Z,99125.14
2019-04-06T22:59:14.579Z,99118.39
2019-04-06T23:01:42.743Z,99120.72
2019-04-06T23:04:20.440Z,99120.84
2019-04-06T23:06:53.416Z,99122.53
2019-04-06T23:09:21.255Z,99126.98
2019-04-06T23:11:49.250Z,99122.91
2019-04-06T23:14:16.960Z,99114.55
2019-04-06T23:16:44.746Z,99118.78
2019-04-06T23:19:13.103Z,99114.03
2019-04-06T23:21:41.367Z,99119.27
2019-04-06T23:24:09.100Z,99114.17
2019-04-06T23:26:37.167Z,99113.88
2019-04-06T23:29:05.180Z,99110.31
2019-04-06T23:31:33.495Z,99112.06
2019-04-06T23:34:02.184Z,99106.25
2019-04-06T23:36:30.407Z,99113.99
2019-04-06T23:38:58.180Z,99106.41
2019-04-06T23:41:25.883Z,99111.03
2019-04-06T23:43:53.627Z,99110.28
2019-04-06T23:46:21.322Z,99107.63
2019-04-06T23:48:48.970Z,99108.08
2019-04-06T23:51:16.619Z,99113.20
2019-04-06T23:53:44.377Z,99112.18
2019-04-06T23:56:12.066Z,99112.42
2019-04-06T23:58:39.715Z,99115.92
